ASA7015 PABR-PANC
Flight info
| Callsign | ASA7015 |
|---|---|
| Flight time | 1h 40m |
| Altitude | 37000 |
| Route | KUTDE TKA TAGER9 |
| Aircraft | B738/M-SDE2E3FGHIRWXY/LB1 |
Departure
| Time | 2026-05-01 11:35 |
|---|---|
| Airport | Wiley Post Will Rogers Memorial Airport (PABR) |
Arrival
| Time | 2026-05-01 13:16 |
|---|---|
| Airport | Ted Stevens Anchorage International Airport (PANC) |
| Time | Latitude | Longitude | Altitude | Speed | Heading |
|---|---|---|---|---|---|
| 2026-05-01 11:15 | 71.28717 | -156.77525 | 46 ft | 0 kts | 87° |
| 2026-05-01 11:29 | 71.28712 | -156.77596 | 46 ft | 4 kts | 46° |
| 2026-05-01 11:30 | 71.28696 | -156.77613 | 45 ft | 4 kts | 324° |
| 2026-05-01 11:30 | 71.28684 | -156.77563 | 45 ft | 1 kts | 270° |
| 2026-05-01 11:30 | 71.28684 | -156.77561 | 45 ft | 1 kts | 269° |
| 2026-05-01 11:32 | 71.28684 | -156.77578 | 44 ft | 2 kts | 270° |
| 2026-05-01 11:32 | 71.28684 | -156.77665 | 46 ft | 6 kts | 270° |
| 2026-05-01 11:33 | 71.28684 | -156.77840 | 45 ft | 10 kts | 270° |
| 2026-05-01 11:33 | 71.28685 | -156.78131 | 45 ft | 16 kts | 271° |
| 2026-05-01 11:33 | 71.28684 | -156.78517 | 45 ft | 19 kts | 262° |
| 2026-05-01 11:33 | 71.28652 | -156.78902 | 45 ft | 18 kts | 254° |
| 2026-05-01 11:34 | 71.28620 | -156.79249 | 45 ft | 12 kts | 250° |
| 2026-05-01 11:34 | 71.28551 | -156.79373 | 46 ft | 12 kts | 191° |
| 2026-05-01 11:34 | 71.28524 | -156.79287 | 47 ft | 6 kts | 75° |
| 2026-05-01 11:34 | 71.28526 | -156.79226 | 47 ft | 0 kts | 89° |
| 2026-05-01 11:35 | 71.28526 | -156.78800 | 45 ft | 55 kts | 90° |
| 2026-05-01 11:35 | 71.28528 | -156.76875 | 45 ft | 122 kts | 90° |
| 2026-05-01 11:35 | 71.28529 | -156.73895 | 461 ft | 142 kts | 87° |
| 2026-05-01 11:35 | 71.28523 | -156.70839 | 1425 ft | 143 kts | 90° |
| 2026-05-01 11:36 | 71.28498 | -156.67505 | 2010 ft | 166 kts | 91° |
| 2026-05-01 11:36 | 71.28468 | -156.63692 | 2557 ft | 183 kts | 90° |
| 2026-05-01 11:36 | 71.28346 | -156.59778 | 3314 ft | 192 kts | 109° |
| 2026-05-01 11:36 | 71.27397 | -156.56521 | 3576 ft | 225 kts | 151° |
| 2026-05-01 11:37 | 71.25813 | -156.54774 | 3943 ft | 253 kts | 161° |
| 2026-05-01 11:37 | 71.24129 | -156.53189 | 4894 ft | 255 kts | 161° |
| 2026-05-01 11:37 | 71.22423 | -156.51585 | 5849 ft | 259 kts | 161° |
| 2026-05-01 11:37 | 71.20683 | -156.49929 | 6774 ft | 261 kts | 160° |
| 2026-05-01 11:38 | 71.18939 | -156.48249 | 7696 ft | 264 kts | 161° |
| 2026-05-01 11:38 | 71.17199 | -156.46543 | 8654 ft | 264 kts | 160° |
| 2026-05-01 11:38 | 71.15443 | -156.44796 | 9589 ft | 268 kts | 161° |
| 2026-05-01 11:38 | 71.13644 | -156.42993 | 10364 ft | 274 kts | 160° |
| 2026-05-01 11:39 | 71.11752 | -156.41085 | 10683 ft | 298 kts | 160° |
| 2026-05-01 11:39 | 71.09701 | -156.39007 | 11009 ft | 318 kts | 160° |
| 2026-05-01 11:39 | 71.07559 | -156.36839 | 11595 ft | 328 kts | 160° |
| 2026-05-01 11:39 | 71.05396 | -156.34646 | 12585 ft | 327 kts | 160° |
| 2026-05-01 11:40 | 71.03236 | -156.32457 | 13310 ft | 333 kts | 160° |
| 2026-05-01 11:40 | 71.01018 | -156.30210 | 14076 ft | 337 kts | 160° |
| 2026-05-01 11:40 | 70.98790 | -156.27954 | 14882 ft | 338 kts | 161° |
| 2026-05-01 11:40 | 70.96537 | -156.25677 | 15523 ft | 344 kts | 162° |
| 2026-05-01 11:41 | 70.94249 | -156.23372 | 16214 ft | 349 kts | 162° |
| 2026-05-01 11:41 | 70.91942 | -156.21049 | 17008 ft | 350 kts | 163° |
| 2026-05-01 11:41 | 70.89633 | -156.18730 | 17604 ft | 357 kts | 163° |
| 2026-05-01 11:41 | 70.87251 | -156.16347 | 18251 ft | 362 kts | 164° |
| 2026-05-01 11:42 | 70.84867 | -156.13965 | 18869 ft | 364 kts | 165° |
| 2026-05-01 11:42 | 70.82450 | -156.11556 | 19486 ft | 367 kts | 165° |
| 2026-05-01 11:42 | 70.80008 | -156.09129 | 20080 ft | 371 kts | 166° |
| 2026-05-01 11:42 | 70.77543 | -156.06685 | 20660 ft | 374 kts | 166° |
| 2026-05-01 11:43 | 70.75046 | -156.04215 | 21236 ft | 378 kts | 166° |
| 2026-05-01 11:43 | 70.72532 | -156.01735 | 21808 ft | 381 kts | 167° |
| 2026-05-01 11:43 | 70.69987 | -155.99232 | 22368 ft | 385 kts | 167° |
| 2026-05-01 11:44 | 70.64890 | -155.94232 | 23534 ft | 389 kts | 168° |
| 2026-05-01 11:44 | 70.62294 | -155.91697 | 23961 ft | 392 kts | 168° |
| 2026-05-01 11:44 | 70.59717 | -155.89189 | 24396 ft | 395 kts | 168° |
| 2026-05-01 11:44 | 70.57092 | -155.86639 | 24847 ft | 397 kts | 168° |
| 2026-05-01 11:45 | 70.54451 | -155.84081 | 25291 ft | 399 kts | 169° |
| 2026-05-01 11:45 | 70.51796 | -155.81516 | 25700 ft | 402 kts | 169° |
| 2026-05-01 11:45 | 70.49148 | -155.78965 | 26117 ft | 404 kts | 169° |
| 2026-05-01 11:45 | 70.46456 | -155.76380 | 26527 ft | 406 kts | 169° |
| 2026-05-01 11:46 | 70.43750 | -155.73788 | 26933 ft | 409 kts | 169° |
| 2026-05-01 11:46 | 70.41029 | -155.71188 | 27325 ft | 411 kts | 169° |
| 2026-05-01 11:46 | 70.38292 | -155.68582 | 27655 ft | 414 kts | 169° |
| 2026-05-01 11:46 | 70.35527 | -155.65960 | 27915 ft | 419 kts | 169° |
| 2026-05-01 11:47 | 70.32776 | -155.63355 | 28270 ft | 421 kts | 169° |
| 2026-05-01 11:47 | 70.29979 | -155.60710 | 28682 ft | 422 kts | 169° |
| 2026-05-01 11:47 | 70.27170 | -155.58061 | 29046 ft | 424 kts | 170° |
| 2026-05-01 11:47 | 70.24345 | -155.55407 | 29371 ft | 426 kts | 170° |
| 2026-05-01 11:48 | 70.21507 | -155.52749 | 29698 ft | 429 kts | 170° |
| 2026-05-01 11:48 | 70.18683 | -155.50113 | 30007 ft | 431 kts | 170° |
| 2026-05-01 11:48 | 70.15811 | -155.47436 | 30337 ft | 431 kts | 170° |
| 2026-05-01 11:48 | 70.12944 | -155.44769 | 30698 ft | 430 kts | 169° |
| 2026-05-01 11:49 | 70.10086 | -155.42119 | 31001 ft | 431 kts | 169° |
| 2026-05-01 11:49 | 70.07218 | -155.39471 | 31293 ft | 432 kts | 169° |
| 2026-05-01 11:49 | 70.04377 | -155.36856 | 31612 ft | 432 kts | 169° |
| 2026-05-01 11:49 | 70.01496 | -155.34211 | 31938 ft | 432 kts | 169° |
| 2026-05-01 11:50 | 69.98624 | -155.31583 | 32235 ft | 433 kts | 168° |
| 2026-05-01 11:50 | 69.95750 | -155.28961 | 32541 ft | 433 kts | 168° |
| 2026-05-01 11:50 | 69.92862 | -155.26334 | 32851 ft | 434 kts | 168° |
| 2026-05-01 11:50 | 69.89982 | -155.23721 | 33152 ft | 434 kts | 168° |
| 2026-05-01 11:51 | 69.87087 | -155.21121 | 33371 ft | 436 kts | 168° |
| 2026-05-01 11:51 | 69.84182 | -155.18508 | 33649 ft | 436 kts | 168° |
| 2026-05-01 11:51 | 69.81285 | -155.15897 | 34022 ft | 434 kts | 168° |
| 2026-05-01 11:51 | 69.78415 | -155.13314 | 34320 ft | 433 kts | 168° |
| 2026-05-01 11:52 | 69.75562 | -155.10758 | 34465 ft | 435 kts | 168° |
| 2026-05-01 11:52 | 69.72654 | -155.08165 | 34633 ft | 438 kts | 167° |
| 2026-05-01 11:52 | 69.69735 | -155.05569 | 34875 ft | 437 kts | 167° |
| 2026-05-01 11:52 | 69.66821 | -155.02984 | 35120 ft | 437 kts | 167° |
| 2026-05-01 11:53 | 69.63940 | -155.00437 | 35308 ft | 439 kts | 167° |
| 2026-05-01 11:53 | 69.61012 | -154.97857 | 35502 ft | 440 kts | 167° |
| 2026-05-01 11:53 | 69.58082 | -154.95282 | 35718 ft | 440 kts | 167° |
| 2026-05-01 11:53 | 69.55145 | -154.92707 | 35933 ft | 441 kts | 167° |
| 2026-05-01 11:54 | 69.52205 | -154.90139 | 36119 ft | 442 kts | 167° |
| 2026-05-01 11:54 | 69.49263 | -154.87576 | 36314 ft | 442 kts | 167° |
| 2026-05-01 11:54 | 69.46310 | -154.85010 | 36500 ft | 443 kts | 167° |
| 2026-05-01 11:54 | 69.43393 | -154.82483 | 36716 ft | 443 kts | 167° |
| 2026-05-01 11:55 | 69.40436 | -154.79928 | 36832 ft | 445 kts | 167° |
| 2026-05-01 11:55 | 69.37461 | -154.77368 | 36868 ft | 447 kts | 167° |
| 2026-05-01 11:55 | 69.31497 | -154.72251 | 36851 ft | 446 kts | 167° |
| 2026-05-01 11:56 | 69.25606 | -154.67219 | 36852 ft | 439 kts | 167° |
| 2026-05-01 11:56 | 69.19789 | -154.62287 | 36859 ft | 438 kts | 167° |
| 2026-05-01 11:57 | 69.14899 | -154.58164 | 36850 ft | 437 kts | 167° |
| 2026-05-01 11:57 | 69.08112 | -154.52473 | 36852 ft | 437 kts | 167° |
| 2026-05-01 11:58 | 69.02262 | -154.47596 | 36851 ft | 438 kts | 167° |
| 2026-05-01 11:59 | 68.93493 | -154.40339 | 36841 ft | 439 kts | 167° |
| 2026-05-01 11:59 | 68.87662 | -154.35541 | 36832 ft | 439 kts | 167° |
| 2026-05-01 12:00 | 68.78841 | -154.28336 | 36825 ft | 440 kts | 167° |
| 2026-05-01 12:01 | 68.70056 | -154.21221 | 36821 ft | 441 kts | 167° |
| 2026-05-01 12:01 | 68.64163 | -154.16480 | 36826 ft | 441 kts | 167° |
| 2026-05-01 12:02 | 68.58277 | -154.11770 | 36809 ft | 441 kts | 167° |
| 2026-05-01 12:02 | 68.52384 | -154.07083 | 36813 ft | 440 kts | 167° |
| 2026-05-01 12:03 | 68.46520 | -154.02441 | 36799 ft | 440 kts | 167° |
| 2026-05-01 12:03 | 68.41594 | -153.98561 | 36786 ft | 440 kts | 167° |
| 2026-05-01 12:04 | 68.35748 | -153.93980 | 36803 ft | 439 kts | 167° |
| 2026-05-01 12:04 | 68.29869 | -153.89398 | 36806 ft | 439 kts | 167° |
| 2026-05-01 12:05 | 68.24033 | -153.84874 | 36818 ft | 439 kts | 167° |
| 2026-05-01 12:05 | 68.15209 | -153.78080 | 36832 ft | 439 kts | 167° |
| 2026-05-01 12:06 | 68.09344 | -153.73595 | 36837 ft | 439 kts | 167° |
| 2026-05-01 12:06 | 68.03460 | -153.69116 | 36847 ft | 439 kts | 167° |
| 2026-05-01 12:07 | 67.97566 | -153.64655 | 36834 ft | 439 kts | 167° |
| 2026-05-01 12:07 | 67.91731 | -153.60262 | 36816 ft | 438 kts | 167° |
| 2026-05-01 12:08 | 67.85869 | -153.55871 | 36828 ft | 437 kts | 167° |
| 2026-05-01 12:08 | 67.80008 | -153.51504 | 36842 ft | 437 kts | 167° |
| 2026-05-01 12:09 | 67.74184 | -153.47188 | 36825 ft | 437 kts | 167° |
| 2026-05-01 12:09 | 67.68324 | -153.42868 | 36835 ft | 437 kts | 167° |
| 2026-05-01 12:10 | 67.59525 | -153.36420 | 36840 ft | 437 kts | 167° |
| 2026-05-01 12:11 | 67.50755 | -153.30045 | 36843 ft | 437 kts | 168° |
| 2026-05-01 12:11 | 67.44880 | -153.25800 | 36816 ft | 437 kts | 168° |
| 2026-05-01 12:12 | 67.39048 | -153.21609 | 36829 ft | 437 kts | 168° |
| 2026-05-01 12:12 | 67.33177 | -153.17411 | 36835 ft | 437 kts | 168° |
| 2026-05-01 12:13 | 67.27306 | -153.13236 | 36833 ft | 437 kts | 167° |
| 2026-05-01 12:13 | 67.21453 | -153.09093 | 36826 ft | 437 kts | 167° |
| 2026-05-01 12:14 | 67.15620 | -153.04988 | 36831 ft | 436 kts | 168° |
| 2026-05-01 12:14 | 67.09770 | -153.00885 | 36816 ft | 436 kts | 168° |
| 2026-05-01 12:15 | 67.03911 | -152.96799 | 36824 ft | 435 kts | 168° |
| 2026-05-01 12:15 | 66.98098 | -152.92766 | 36792 ft | 434 kts | 168° |
| 2026-05-01 12:16 | 66.92267 | -152.88741 | 36810 ft | 433 kts | 168° |
| 2026-05-01 12:16 | 66.86438 | -152.84740 | 36812 ft | 433 kts | 167° |
| 2026-05-01 12:17 | 66.80605 | -152.80754 | 36798 ft | 433 kts | 167° |
| 2026-05-01 12:17 | 66.74810 | -152.76809 | 36793 ft | 432 kts | 167° |
| 2026-05-01 12:18 | 66.68989 | -152.72869 | 36795 ft | 432 kts | 167° |
| 2026-05-01 12:18 | 66.63207 | -152.68976 | 36781 ft | 432 kts | 167° |
| 2026-05-01 12:19 | 66.57383 | -152.65071 | 36786 ft | 432 kts | 168° |
| 2026-05-01 12:19 | 66.51569 | -152.61192 | 36777 ft | 432 kts | 168° |
| 2026-05-01 12:20 | 66.45799 | -152.57361 | 36769 ft | 431 kts | 168° |
| 2026-05-01 12:20 | 66.39988 | -152.53520 | 36778 ft | 431 kts | 168° |
| 2026-05-01 12:21 | 66.34177 | -152.49697 | 36777 ft | 432 kts | 168° |
| 2026-05-01 12:21 | 66.28354 | -152.45817 | 36777 ft | 433 kts | 167° |
| 2026-05-01 12:22 | 66.22565 | -152.41844 | 36773 ft | 433 kts | 167° |
| 2026-05-01 12:22 | 66.16745 | -152.37854 | 36772 ft | 434 kts | 167° |
| 2026-05-01 12:23 | 66.10941 | -152.33907 | 36769 ft | 434 kts | 167° |
| 2026-05-01 12:23 | 66.05099 | -152.29962 | 36766 ft | 435 kts | 167° |
| 2026-05-01 12:24 | 65.99376 | -152.26119 | 36770 ft | 435 kts | 167° |
| 2026-05-01 12:24 | 65.93864 | -152.22434 | 36762 ft | 435 kts | 167° |
| 2026-05-01 12:25 | 65.85096 | -152.16606 | 36770 ft | 435 kts | 167° |
| 2026-05-01 12:26 | 65.79246 | -152.12741 | 36757 ft | 435 kts | 167° |
| 2026-05-01 12:26 | 65.70515 | -152.07004 | 36766 ft | 434 kts | 167° |
| 2026-05-01 12:27 | 65.61752 | -152.01288 | 36759 ft | 434 kts | 168° |
| 2026-05-01 12:28 | 65.52994 | -151.95614 | 36760 ft | 433 kts | 168° |
| 2026-05-01 12:29 | 65.44296 | -151.90018 | 36760 ft | 432 kts | 168° |
| 2026-05-01 12:29 | 65.35575 | -151.84447 | 36758 ft | 432 kts | 168° |
| 2026-05-01 12:30 | 65.26877 | -151.78928 | 36752 ft | 432 kts | 168° |
| 2026-05-01 12:31 | 65.21072 | -151.75266 | 36767 ft | 431 kts | 168° |
| 2026-05-01 12:31 | 65.15299 | -151.71640 | 36764 ft | 431 kts | 168° |
| 2026-05-01 12:32 | 65.09493 | -151.68011 | 36716 ft | 430 kts | 168° |
| 2026-05-01 12:32 | 65.00819 | -151.62616 | 36759 ft | 429 kts | 168° |
| 2026-05-01 12:33 | 64.95069 | -151.59061 | 36751 ft | 429 kts | 168° |
| 2026-05-01 12:33 | 64.89278 | -151.55497 | 36752 ft | 429 kts | 168° |
| 2026-05-01 12:34 | 64.83491 | -151.51951 | 36757 ft | 430 kts | 168° |
| 2026-05-01 12:34 | 64.77726 | -151.48434 | 36747 ft | 430 kts | 168° |
| 2026-05-01 12:35 | 64.71914 | -151.44904 | 36751 ft | 431 kts | 168° |
| 2026-05-01 12:35 | 64.66086 | -151.41380 | 36747 ft | 432 kts | 168° |
| 2026-05-01 12:36 | 64.60245 | -151.37882 | 36747 ft | 437 kts | 168° |
| 2026-05-01 12:36 | 64.54334 | -151.34331 | 36751 ft | 440 kts | 168° |
| 2026-05-01 12:37 | 64.48393 | -151.30780 | 36743 ft | 442 kts | 168° |
| 2026-05-01 12:37 | 64.42461 | -151.27253 | 36749 ft | 442 kts | 168° |
| 2026-05-01 12:38 | 64.36488 | -151.23722 | 36755 ft | 441 kts | 168° |
| 2026-05-01 12:38 | 64.30574 | -151.20239 | 36735 ft | 440 kts | 168° |
| 2026-05-01 12:39 | 64.24652 | -151.16767 | 36738 ft | 437 kts | 168° |
| 2026-05-01 12:39 | 64.18778 | -151.13339 | 36711 ft | 434 kts | 168° |
| 2026-05-01 12:40 | 64.12925 | -151.09938 | 36724 ft | 432 kts | 168° |
| 2026-05-01 12:40 | 64.07144 | -151.06595 | 36736 ft | 430 kts | 168° |
| 2026-05-01 12:41 | 64.01357 | -151.03262 | 36740 ft | 429 kts | 168° |
| 2026-05-01 12:41 | 63.95563 | -150.99940 | 36739 ft | 429 kts | 168° |
| 2026-05-01 12:42 | 63.89766 | -150.96630 | 36738 ft | 429 kts | 168° |
| 2026-05-01 12:42 | 63.83956 | -150.93326 | 36734 ft | 429 kts | 168° |
| 2026-05-01 12:43 | 63.78196 | -150.90065 | 36732 ft | 429 kts | 168° |
| 2026-05-01 12:43 | 63.72390 | -150.86798 | 36733 ft | 429 kts | 168° |
| 2026-05-01 12:44 | 63.66602 | -150.83547 | 36735 ft | 428 kts | 168° |
| 2026-05-01 12:45 | 63.55062 | -150.77103 | 36738 ft | 428 kts | 168° |
| 2026-05-01 12:45 | 63.49252 | -150.73882 | 36745 ft | 430 kts | 168° |
| 2026-05-01 12:46 | 63.43468 | -150.70689 | 36691 ft | 432 kts | 168° |
| 2026-05-01 12:46 | 63.40518 | -150.69067 | 36196 ft | 437 kts | 168° |
| 2026-05-01 12:46 | 63.37576 | -150.67451 | 35691 ft | 434 kts | 168° |
| 2026-05-01 12:47 | 63.34650 | -150.65846 | 35099 ft | 432 kts | 167° |
| 2026-05-01 12:47 | 63.31749 | -150.64257 | 34692 ft | 424 kts | 167° |
| 2026-05-01 12:47 | 63.28907 | -150.62702 | 34153 ft | 419 kts | 168° |
| 2026-05-01 12:47 | 63.26047 | -150.61147 | 33483 ft | 420 kts | 168° |
| 2026-05-01 12:48 | 63.23235 | -150.59620 | 32871 ft | 418 kts | 168° |
| 2026-05-01 12:48 | 63.20427 | -150.58094 | 32478 ft | 413 kts | 168° |
| 2026-05-01 12:48 | 63.17641 | -150.56582 | 32056 ft | 408 kts | 168° |
| 2026-05-01 12:48 | 63.14902 | -150.55116 | 31615 ft | 402 kts | 168° |
| 2026-05-01 12:49 | 63.12193 | -150.53650 | 31191 ft | 398 kts | 168° |
| 2026-05-01 12:49 | 63.09509 | -150.52196 | 30744 ft | 394 kts | 168° |
| 2026-05-01 12:49 | 63.06858 | -150.50777 | 30320 ft | 390 kts | 168° |
| 2026-05-01 12:49 | 63.04251 | -150.49605 | 29922 ft | 382 kts | 172° |
| 2026-05-01 12:50 | 63.01676 | -150.48386 | 29492 ft | 379 kts | 166° |
| 2026-05-01 12:50 | 62.99157 | -150.46748 | 29085 ft | 374 kts | 166° |
| 2026-05-01 12:50 | 62.96665 | -150.45201 | 28648 ft | 369 kts | 167° |
| 2026-05-01 12:50 | 62.95025 | -150.44282 | 28362 ft | 366 kts | 168° |
| 2026-05-01 12:51 | 62.92562 | -150.42988 | 27959 ft | 361 kts | 169° |
| 2026-05-01 12:51 | 62.90129 | -150.41732 | 27561 ft | 357 kts | 169° |
| 2026-05-01 12:51 | 62.85328 | -150.39249 | 26702 ft | 351 kts | 169° |
| 2026-05-01 12:52 | 62.82957 | -150.38020 | 26330 ft | 348 kts | 169° |
| 2026-05-01 12:52 | 62.78282 | -150.35581 | 25535 ft | 348 kts | 169° |
| 2026-05-01 12:52 | 62.75894 | -150.34334 | 25152 ft | 357 kts | 169° |
| 2026-05-01 12:53 | 62.71011 | -150.31780 | 24307 ft | 359 kts | 169° |
| 2026-05-01 12:53 | 62.68586 | -150.30509 | 23895 ft | 356 kts | 169° |
| 2026-05-01 12:53 | 62.66174 | -150.29246 | 23487 ft | 353 kts | 169° |
| 2026-05-01 12:54 | 62.63793 | -150.28003 | 23018 ft | 350 kts | 169° |
| 2026-05-01 12:54 | 62.59147 | -150.25584 | 22241 ft | 341 kts | 169° |
| 2026-05-01 12:54 | 62.56848 | -150.24390 | 21854 ft | 336 kts | 169° |
| 2026-05-01 12:55 | 62.52342 | -150.22058 | 21096 ft | 328 kts | 169° |
| 2026-05-01 12:55 | 62.50133 | -150.20918 | 20713 ft | 325 kts | 169° |
| 2026-05-01 12:55 | 62.47945 | -150.19790 | 20344 ft | 321 kts | 169° |
| 2026-05-01 12:56 | 62.45804 | -150.18688 | 19986 ft | 318 kts | 169° |
| 2026-05-01 12:56 | 62.43650 | -150.17581 | 19628 ft | 314 kts | 169° |
| 2026-05-01 12:56 | 62.41553 | -150.16505 | 19278 ft | 311 kts | 169° |
| 2026-05-01 12:56 | 62.39454 | -150.15431 | 18904 ft | 308 kts | 169° |
| 2026-05-01 12:57 | 62.37378 | -150.14367 | 18561 ft | 305 kts | 169° |
| 2026-05-01 12:57 | 62.33283 | -150.12274 | 17866 ft | 297 kts | 169° |
| 2026-05-01 12:57 | 62.31314 | -150.11270 | 17566 ft | 292 kts | 169° |
| 2026-05-01 12:58 | 62.29335 | -150.10378 | 17249 ft | 287 kts | 174° |
| 2026-05-01 12:58 | 62.27353 | -150.09937 | 16992 ft | 286 kts | 176° |
| 2026-05-01 12:58 | 62.25344 | -150.09561 | 16725 ft | 293 kts | 177° |
| 2026-05-01 12:59 | 62.21217 | -150.08807 | 16207 ft | 298 kts | 176° |
| 2026-05-01 12:59 | 62.19179 | -150.08427 | 15951 ft | 295 kts | 176° |
| 2026-05-01 12:59 | 62.15130 | -150.07662 | 15340 ft | 288 kts | 176° |
| 2026-05-01 13:00 | 62.11176 | -150.06910 | 14629 ft | 282 kts | 176° |
| 2026-05-01 13:00 | 62.09249 | -150.06543 | 14275 ft | 281 kts | 176° |
| 2026-05-01 13:01 | 62.05371 | -150.05804 | 13570 ft | 278 kts | 176° |
| 2026-05-01 13:01 | 62.03448 | -150.05439 | 13217 ft | 276 kts | 176° |
| 2026-05-01 13:01 | 61.99661 | -150.04719 | 12544 ft | 270 kts | 176° |
| 2026-05-01 13:02 | 61.97796 | -150.04365 | 12205 ft | 268 kts | 176° |
| 2026-05-01 13:07 | 61.63920 | -149.98008 | 7335 ft | 228 kts | 172° |
| 2026-05-01 13:07 | 61.62354 | -149.97718 | 7063 ft | 228 kts | 172° |
| 2026-05-01 13:07 | 61.60769 | -149.97425 | 6794 ft | 229 kts | 172° |
| 2026-05-01 13:08 | 61.59179 | -149.97131 | 6520 ft | 229 kts | 171° |
| 2026-05-01 13:08 | 61.57585 | -149.96848 | 6236 ft | 231 kts | 174° |
| 2026-05-01 13:08 | 61.55979 | -149.97415 | 5915 ft | 240 kts | 194° |
| 2026-05-01 13:08 | 61.54432 | -149.98637 | 5634 ft | 240 kts | 195° |
| 2026-05-01 13:09 | 61.52864 | -149.99867 | 5356 ft | 241 kts | 195° |
| 2026-05-01 13:09 | 61.51287 | -150.01098 | 5089 ft | 242 kts | 195° |
| 2026-05-01 13:09 | 61.49713 | -150.02324 | 4808 ft | 242 kts | 195° |
| 2026-05-01 13:09 | 61.48129 | -150.03556 | 4542 ft | 242 kts | 195° |
| 2026-05-01 13:10 | 61.46562 | -150.04774 | 4266 ft | 243 kts | 195° |
| 2026-05-01 13:10 | 61.44973 | -150.06006 | 3991 ft | 243 kts | 195° |
| 2026-05-01 13:10 | 61.43382 | -150.07237 | 3764 ft | 242 kts | 195° |
| 2026-05-01 13:10 | 61.41823 | -150.08443 | 3654 ft | 236 kts | 195° |
| 2026-05-01 13:11 | 61.40293 | -150.09624 | 3539 ft | 231 kts | 195° |
| 2026-05-01 13:11 | 61.38808 | -150.10769 | 3435 ft | 225 kts | 195° |
| 2026-05-01 13:11 | 61.37325 | -150.11187 | 3312 ft | 209 kts | 163° |
| 2026-05-01 13:11 | 61.35969 | -150.10363 | 3276 ft | 199 kts | 160° |
| 2026-05-01 13:12 | 61.34656 | -150.09649 | 3092 ft | 198 kts | 161° |
| 2026-05-01 13:12 | 61.33358 | -150.08943 | 3005 ft | 193 kts | 161° |
| 2026-05-01 13:12 | 61.32070 | -150.08227 | 2906 ft | 190 kts | 161° |
| 2026-05-01 13:12 | 61.30808 | -150.07520 | 2667 ft | 187 kts | 161° |
| 2026-05-01 13:13 | 61.29558 | -150.06819 | 2403 ft | 184 kts | 162° |
| 2026-05-01 13:13 | 61.28334 | -150.06135 | 2130 ft | 180 kts | 162° |
| 2026-05-01 13:13 | 61.27169 | -150.05484 | 1862 ft | 169 kts | 162° |
| 2026-05-01 13:13 | 61.26071 | -150.04870 | 1640 ft | 155 kts | 162° |
| 2026-05-01 13:14 | 61.25061 | -150.04304 | 1386 ft | 146 kts | 163° |
| 2026-05-01 13:14 | 61.24088 | -150.03758 | 1171 ft | 144 kts | 163° |
| 2026-05-01 13:14 | 61.23110 | -150.03210 | 915 ft | 148 kts | 164° |
| 2026-05-01 13:14 | 61.22106 | -150.02644 | 708 ft | 151 kts | 165° |
| 2026-05-01 13:15 | 61.21085 | -150.02065 | 492 ft | 153 kts | 166° |
| 2026-05-01 13:15 | 61.20057 | -150.01494 | 274 ft | 156 kts | 166° |
| 2026-05-01 13:15 | 61.19014 | -150.00903 | 150 ft | 152 kts | 166° |
| 2026-05-01 13:15 | 61.18083 | -150.00392 | 121 ft | 121 kts | 165° |
| 2026-05-01 13:16 | 61.17387 | -150.00002 | 130 ft | 76 kts | 165° |
| 2026-05-01 13:16 | 61.17146 | -149.99866 | 137 ft | 13 kts | 153° |
| 2026-05-01 13:16 | 61.17124 | -149.99695 | 119 ft | 14 kts | 90° |
| 2026-05-01 13:17 | 61.17122 | -149.98983 | 113 ft | 18 kts | 94° |
| 2026-05-01 13:17 | 61.17116 | -149.98702 | 115 ft | 21 kts | 92° |
| 2026-05-01 13:18 | 61.17117 | -149.98104 | 114 ft | 20 kts | 90° |
| 2026-05-01 13:18 | 61.17117 | -149.97818 | 111 ft | 20 kts | 89° |
| 2026-05-01 13:18 | 61.17119 | -149.97524 | 106 ft | 21 kts | 89° |
| 2026-05-01 13:18 | 61.17127 | -149.97228 | 101 ft | 21 kts | 89° |
| 2026-05-01 13:19 | 61.17127 | -149.96931 | 97 ft | 21 kts | 89° |
| 2026-05-01 13:19 | 61.17128 | -149.96635 | 95 ft | 20 kts | 89° |
| 2026-05-01 13:19 | 61.17140 | -149.96280 | 96 ft | 6 kts | 39° |
| 2026-05-01 13:20 | 61.17187 | -149.96266 | 110 ft | 7 kts | 2° |
| 2026-05-01 13:20 | 61.17229 | -149.96251 | 97 ft | 4 kts | 43° |
| 2026-05-01 13:20 | 61.17227 | -149.96205 | 96 ft | 4 kts | 122° |
| 2026-05-01 13:21 | 61.17213 | -149.96169 | 96 ft | 0 kts | 131° |